KMMI/MMI METAR and TAF weather

Enter ICAO airport designator
Station Type Date Time Source
KMMI METAR 2020/04/04 20:15 UTC NOAA

KMMI 042015Z AUTO 00000KT 10SM CLR 24/03 A2995 RMK A01


Station Type Date Time Source
KMMI Decoded METAR 2020/04/04 20:15 UTC NOAA

Station name not available
Apr 04, 2020 - 04:15 PM EDT / 2020.04.04 2015 UTC
Wind: Calm:0
Visibility: 10 mile(s):0
Sky conditions: clear
Temperature: 75 F (24 C)
Dew Point: 37 F (3 C)
Relative Humidity: 25%
Pressure (altimeter): 29.95 in. Hg (1014 hPa)
ob: KMMI 042015Z AUTO 00000KT 10SM CLR 24/03 A2995 RMK A01
cycle: 20

Station Type Date Time Source
KMMI TAF UTC NOAA

Error!

Example: see airport list